createdAt,value
2019-03-27T00:01:40.814Z,72.33
2019-03-27T00:05:44.273Z,72.64
2019-03-27T00:09:47.855Z,72.93
2019-03-27T00:13:51.646Z,72.82
2019-03-27T00:17:55.501Z,72.34
2019-03-27T00:21:59.288Z,72.54
2019-03-27T00:26:02.778Z,72.57
2019-03-27T00:30:06.693Z,73.01
2019-03-27T00:34:10.372Z,72.93
2019-03-27T00:38:13.821Z,72.79
2019-03-27T00:42:17.400Z,72.19
2019-03-27T00:46:20.824Z,71.68
2019-03-27T00:50:24.367Z,72.72
2019-03-27T00:54:27.816Z,72.72
2019-03-27T00:58:31.414Z,72.83
2019-03-27T01:02:35.090Z,72.91
2019-03-27T01:06:38.654Z,72.90
2019-03-27T01:10:42.071Z,72.52
2019-03-27T01:14:45.765Z,72.17
2019-03-27T01:18:49.308Z,72.28
2019-03-27T01:22:52.959Z,72.37
2019-03-27T01:26:57.383Z,72.64
2019-03-27T01:31:01.128Z,72.90
2019-03-27T01:35:04.980Z,73.79
2019-03-27T01:39:10.020Z,73.52
2019-03-27T01:43:13.528Z,73.88
2019-03-27T01:47:17.117Z,74.56
2019-03-27T01:51:20.555Z,75.40
2019-03-27T01:55:24.158Z,75.28
2019-03-27T01:59:27.688Z,75.54
2019-03-27T02:03:31.510Z,76.04
2019-03-27T02:07:35.016Z,75.84
2019-03-27T02:11:39.513Z,76.66
2019-03-27T02:15:42.985Z,76.70
2019-03-27T02:19:46.521Z,77.13
2019-03-27T02:23:50.076Z,78.08
2019-03-27T02:27:53.667Z,77.39
2019-03-27T02:31:59.544Z,77.43
2019-03-27T02:36:03.242Z,77.96
2019-03-27T02:40:07.362Z,78.78
2019-03-27T02:44:10.990Z,78.32
2019-03-27T02:48:14.997Z,78.58
2019-03-27T02:52:19.951Z,79.03
2019-03-27T02:56:23.370Z,79.15
2019-03-27T03:00:27.153Z,79.34
2019-03-27T03:04:30.759Z,79.46
2019-03-27T03:08:34.416Z,79.49
2019-03-27T03:12:38.062Z,79.68
2019-03-27T03:16:43.433Z,80.60
2019-03-27T03:20:47.073Z,80.41
2019-03-27T03:24:50.939Z,80.27
2019-03-27T03:28:55.447Z,80.59
2019-03-27T03:32:59.948Z,81.06
2019-03-27T03:37:03.563Z,80.64
2019-03-27T03:41:07.368Z,80.61
2019-03-27T03:45:11.244Z,80.92
2019-03-27T03:49:14.752Z,80.90
2019-03-27T03:53:18.479Z,81.31
2019-03-27T03:57:25.392Z,81.54
2019-03-27T04:01:31.327Z,81.64
2019-03-27T04:05:34.943Z,82.35
2019-03-27T04:09:38.563Z,81.90
2019-03-27T04:13:42.295Z,82.09
2019-03-27T04:17:45.921Z,82.93
2019-03-27T04:21:49.538Z,82.85
2019-03-27T04:26:09.070Z,82.44
2019-03-27T04:29:58.340Z,82.47
2019-03-27T04:34:01.877Z,82.81
2019-03-27T04:38:05.493Z,82.55
2019-03-27T04:42:08.969Z,82.43
2019-03-27T04:46:12.555Z,82.75
2019-03-27T04:50:16.233Z,82.68
2019-03-27T04:54:19.749Z,82.75
2019-03-27T04:58:23.243Z,82.98
2019-03-27T05:02:27.011Z,83.25
2019-03-27T05:06:30.704Z,82.83
2019-03-27T05:10:34.294Z,82.69
2019-03-27T05:14:37.803Z,82.43
2019-03-27T05:18:41.295Z,82.18
2019-03-27T05:22:44.896Z,81.98
2019-03-27T05:26:48.507Z,81.93
2019-03-27T05:30:52.037Z,80.95
2019-03-27T05:34:55.891Z,80.26
2019-03-27T05:38:59.360Z,78.69
2019-03-27T05:43:03.056Z,78.11
2019-03-27T05:47:06.553Z,77.63
2019-03-27T05:51:10.181Z,77.38
2019-03-27T05:55:13.711Z,75.67
2019-03-27T05:59:17.259Z,75.08
2019-03-27T06:03:20.710Z,74.52
2019-03-27T06:07:24.316Z,74.06
2019-03-27T06:11:27.873Z,73.08
2019-03-27T06:15:31.539Z,71.92
2019-03-27T06:19:35.062Z,70.35
2019-03-27T06:23:38.735Z,69.52
2019-03-27T06:27:42.301Z,69.66
2019-03-27T06:31:45.893Z,69.96
2019-03-27T06:35:49.423Z,69.31
2019-03-27T06:39:53.043Z,67.99
2019-03-27T06:43:56.569Z,67.78
2019-03-27T06:48:00.114Z,67.18
2019-03-27T06:52:03.561Z,64.66
2019-03-27T06:56:07.012Z,65.02
2019-03-27T07:00:12.526Z,65.17
2019-03-27T07:04:16.992Z,63.96
2019-03-27T07:08:20.473Z,62.54
2019-03-27T07:12:25.618Z,62.77
2019-03-27T07:16:29.193Z,62.63
2019-03-27T07:20:32.788Z,60.37
2019-03-27T07:24:36.444Z,61.82
2019-03-27T07:28:39.900Z,62.17
2019-03-27T07:32:43.386Z,62.17
2019-03-27T07:36:46.964Z,60.88
2019-03-27T07:40:50.429Z,61.42
2019-03-27T07:44:54.363Z,60.75
2019-03-27T07:48:58.182Z,59.35
2019-03-27T07:53:01.852Z,59.19
2019-03-27T07:57:05.521Z,59.22
2019-03-27T08:01:09.024Z,58.38
2019-03-27T08:05:12.700Z,59.31
2019-03-27T08:09:16.320Z,58.11
2019-03-27T08:13:19.806Z,58.12
2019-03-27T08:17:23.784Z,57.91
2019-03-27T08:21:27.235Z,58.43
2019-03-27T08:25:30.944Z,57.95
2019-03-27T08:29:34.577Z,56.35
2019-03-27T08:33:38.271Z,56.73
2019-03-27T08:37:41.711Z,55.56
2019-03-27T08:41:45.387Z,55.81
2019-03-27T08:45:49.781Z,54.87
2019-03-27T08:49:53.444Z,55.59
2019-03-27T08:53:57.057Z,54.92
2019-03-27T08:58:00.745Z,55.58
2019-03-27T09:02:04.294Z,56.17
2019-03-27T09:06:07.873Z,56.29
2019-03-27T09:10:12.072Z,55.39
2019-03-27T09:14:15.556Z,52.55
2019-03-27T09:18:20.807Z,53.31
2019-03-27T09:22:24.542Z,51.06
2019-03-27T09:26:28.038Z,51.51
2019-03-27T09:30:31.872Z,51.00
2019-03-27T09:34:35.482Z,51.43
2019-03-27T09:38:39.159Z,50.27
2019-03-27T09:42:42.725Z,49.59
2019-03-27T09:46:46.359Z,48.79
2019-03-27T09:50:50.818Z,46.93
2019-03-27T09:54:54.405Z,44.76
2019-03-27T09:58:58.237Z,45.50
2019-03-27T10:03:02.418Z,45.45
2019-03-27T10:07:06.090Z,45.42
2019-03-27T10:11:09.689Z,45.52
2019-03-27T10:15:15.098Z,43.96
2019-03-27T10:19:20.335Z,42.65
2019-03-27T10:23:24.840Z,44.15
2019-03-27T10:27:28.502Z,42.84
2019-03-27T10:31:32.190Z,43.50
2019-03-27T10:35:35.882Z,41.56
2019-03-27T10:39:39.434Z,43.54
2019-03-27T10:43:43.364Z,42.21
2019-03-27T10:47:46.832Z,42.49
2019-03-27T10:51:50.420Z,42.30
2019-03-27T10:55:54.018Z,40.65
2019-03-27T10:59:57.657Z,42.13
2019-03-27T11:04:00.966Z,40.10
2019-03-27T11:08:04.468Z,40.72
2019-03-27T11:12:07.935Z,42.21
2019-03-27T11:16:11.418Z,41.47
2019-03-27T11:20:16.223Z,40.24
2019-03-27T11:24:20.115Z,41.03
2019-03-27T11:28:23.461Z,41.54
2019-03-27T11:32:27.008Z,42.58
2019-03-27T11:36:30.258Z,41.71
2019-03-27T11:40:33.633Z,40.09
2019-03-27T11:44:37.013Z,40.81
2019-03-27T11:48:40.384Z,39.34
2019-03-27T11:52:43.693Z,39.55
2019-03-27T11:56:47.688Z,42.17
2019-03-27T12:00:54.750Z,42.20
2019-03-27T12:04:56.238Z,41.94
2019-03-27T12:09:00.426Z,42.62
2019-03-27T12:13:05.289Z,41.85
2019-03-27T12:17:08.808Z,43.10
2019-03-27T12:21:12.135Z,44.04
2019-03-27T12:25:15.910Z,43.11
2019-03-27T12:29:20.346Z,44.25
2019-03-27T12:33:23.875Z,43.20
2019-03-27T12:37:28.057Z,42.57
2019-03-27T12:46:47.047Z,44.91
2019-03-27T12:50:56.535Z,46.15
2019-03-27T12:55:00.380Z,47.15
2019-03-27T12:59:03.969Z,46.86
2019-03-27T13:03:08.155Z,46.81
2019-03-27T13:07:11.862Z,46.75
2019-03-27T13:11:15.571Z,47.08
2019-03-27T13:15:19.176Z,47.19
2019-03-27T13:19:23.087Z,47.00
2019-03-27T13:23:26.516Z,48.04
2019-03-27T13:27:29.854Z,48.51
2019-03-27T13:31:33.303Z,49.38
2019-03-27T13:35:36.856Z,49.33
2019-03-27T13:39:40.310Z,49.63
2019-03-27T13:43:43.974Z,48.91
2019-03-27T13:47:48.418Z,48.79
2019-03-27T13:51:52.053Z,48.62
2019-03-27T13:55:56.455Z,49.37
2019-03-27T14:00:00.282Z,49.46
2019-03-27T14:04:03.703Z,50.74
2019-03-27T14:08:07.387Z,51.44
2019-03-27T14:12:10.647Z,50.79
2019-03-27T14:16:14.117Z,51.64
2019-03-27T14:20:17.727Z,52.45
2019-03-27T14:24:21.331Z,51.35
2019-03-27T14:28:24.792Z,50.93
2019-03-27T14:32:29.851Z,49.95
2019-03-27T14:36:34.376Z,49.79
2019-03-27T14:40:38.317Z,49.59
2019-03-27T14:44:41.774Z,50.09
2019-03-27T14:48:45.513Z,49.87
2019-03-27T14:52:49.286Z,51.05
2019-03-27T14:56:53.183Z,51.46
2019-03-27T15:00:56.619Z,52.03
2019-03-27T15:05:00.339Z,52.68
2019-03-27T15:09:04.973Z,53.11
2019-03-27T15:13:09.247Z,52.94
2019-03-27T15:17:12.749Z,53.18
2019-03-27T15:21:18.142Z,53.82
2019-03-27T15:25:21.566Z,52.96
2019-03-27T15:29:24.963Z,51.95
2019-03-27T15:33:28.402Z,52.61
2019-03-27T15:37:31.754Z,53.14
2019-03-27T15:41:36.089Z,53.43
2019-03-27T15:45:39.450Z,53.68
2019-03-27T15:49:42.700Z,53.74
2019-03-27T15:53:47.431Z,54.69
2019-03-27T15:57:51.088Z,54.15
2019-03-27T16:01:57.749Z,54.95
2019-03-27T16:05:59.809Z,54.52
2019-03-27T16:10:03.447Z,55.05
2019-03-27T16:14:06.832Z,55.62
2019-03-27T16:18:10.494Z,55.95
2019-03-27T16:22:13.799Z,56.27
2019-03-27T16:26:17.408Z,56.73
2019-03-27T16:30:21.233Z,57.50
2019-03-27T16:34:25.401Z,58.17
2019-03-27T16:38:32.167Z,58.45
2019-03-27T16:42:36.984Z,58.26
2019-03-27T16:46:40.590Z,59.08
2019-03-27T16:50:45.066Z,59.05
2019-03-27T16:54:49.915Z,59.35
2019-03-27T16:58:54.363Z,60.05
2019-03-27T17:02:58.102Z,60.47
2019-03-27T17:07:01.865Z,61.36
2019-03-27T17:11:07.401Z,60.96
2019-03-27T17:15:12.684Z,61.58
2019-03-27T17:19:16.196Z,61.45
2019-03-27T17:23:19.778Z,62.45
2019-03-27T17:27:23.387Z,62.89
2019-03-27T17:31:27.008Z,63.64
2019-03-27T17:35:30.764Z,64.39
2019-03-27T17:39:34.789Z,63.83
2019-03-27T17:43:38.476Z,64.61
2019-03-27T17:47:42.055Z,64.07
2019-03-27T17:51:45.532Z,64.92
2019-03-27T17:55:49.182Z,64.70
2019-03-27T17:59:52.637Z,64.71
2019-03-27T18:03:56.293Z,65.45
2019-03-27T18:08:00.162Z,65.70
2019-03-27T18:12:03.840Z,66.21
2019-03-27T18:16:07.435Z,66.63
2019-03-27T18:20:11.505Z,67.64
2019-03-27T18:24:15.079Z,68.03
2019-03-27T18:28:18.818Z,67.33
2019-03-27T18:32:22.334Z,68.28
2019-03-27T18:36:25.864Z,69.23
2019-03-27T18:40:29.750Z,69.08
2019-03-27T18:44:33.310Z,69.30
2019-03-27T18:48:36.756Z,70.78
2019-03-27T18:52:40.375Z,70.79
2019-03-27T18:56:44.736Z,70.17
2019-03-27T19:00:48.250Z,70.27
2019-03-27T19:04:51.803Z,71.23
2019-03-27T19:08:56.727Z,71.33
2019-03-27T19:13:00.229Z,72.25
2019-03-27T19:17:03.895Z,72.34
2019-03-27T19:21:07.459Z,72.35
2019-03-27T19:25:11.289Z,72.67
2019-03-27T19:29:14.837Z,73.20
2019-03-27T19:33:18.576Z,73.38
2019-03-27T19:37:21.948Z,73.60
2019-03-27T19:41:25.623Z,74.19
2019-03-27T19:45:29.320Z,73.99
2019-03-27T19:49:33.032Z,74.47
2019-03-27T19:53:37.088Z,74.14
2019-03-27T19:57:40.723Z,74.19
2019-03-27T20:01:44.176Z,74.58
2019-03-27T20:05:47.712Z,74.70
2019-03-27T20:09:51.231Z,74.64
2019-03-27T20:13:54.854Z,75.39
2019-03-27T20:17:58.472Z,75.65
2019-03-27T20:22:01.989Z,75.62
2019-03-27T20:26:05.582Z,76.34
2019-03-27T20:30:11.837Z,76.48
2019-03-27T20:34:15.467Z,76.80
2019-03-27T20:38:19.095Z,77.45
2019-03-27T20:42:22.766Z,78.15
2019-03-27T20:46:29.287Z,78.28
2019-03-27T20:50:31.814Z,79.11
2019-03-27T20:54:35.342Z,79.26
2019-03-27T20:58:39.056Z,79.41
2019-03-27T21:02:42.974Z,79.72
2019-03-27T21:06:46.599Z,79.97
2019-03-27T21:10:50.126Z,81.17
2019-03-27T21:14:53.709Z,80.78
2019-03-27T21:18:57.360Z,80.86
2019-03-27T21:23:00.870Z,81.39
2019-03-27T21:27:04.503Z,81.76
2019-03-27T21:31:08.010Z,81.66
2019-03-27T21:35:11.738Z,81.83
2019-03-27T21:39:15.415Z,82.46
2019-03-27T21:43:19.210Z,83.02
2019-03-27T21:47:22.993Z,83.22
2019-03-27T21:51:26.560Z,83.33
2019-03-27T21:55:42.189Z,83.49
2019-03-27T21:59:35.139Z,83.79
2019-03-27T22:03:38.646Z,83.89
2019-03-27T22:07:42.309Z,84.72
2019-03-27T22:11:45.765Z,84.81
2019-03-27T22:15:49.341Z,84.95
2019-03-27T22:19:52.790Z,85.56
2019-03-27T22:23:56.703Z,85.77
2019-03-27T22:28:00.374Z,85.95
2019-03-27T22:32:04.032Z,85.77
2019-03-27T22:36:07.506Z,85.74
2019-03-27T22:40:11.274Z,85.84
2019-03-27T22:44:15.029Z,85.98
2019-03-27T22:48:20.042Z,86.23
2019-03-27T22:52:23.546Z,86.34
2019-03-27T22:56:28.237Z,86.61
2019-03-27T23:00:40.509Z,86.74
2019-03-27T23:04:45.675Z,86.73
2019-03-27T23:08:49.137Z,87.24
2019-03-27T23:12:53.022Z,87.26
2019-03-27T23:16:56.481Z,87.69
2019-03-27T23:21:00.887Z,87.81
2019-03-27T23:25:04.678Z,87.94
2019-03-27T23:29:08.350Z,88.22
2019-03-27T23:33:11.902Z,87.90
2019-03-27T23:37:15.665Z,88.54
2019-03-27T23:41:19.186Z,88.82
2019-03-27T23:45:22.870Z,89.24
2019-03-27T23:49:26.404Z,89.18
2019-03-27T23:53:30.007Z,88.99
2019-03-27T23:57:33.730Z,89.04
